Time;durP1;ratioP1;P1;durP2;ratioP2;P2;SDS_P1;SDS_P2;PMS_P1;PMS_P2;Temp;Humidity;BMP_temperature;BMP_pressure;BME280_temperature;BME280_humidity;BME280_pressure;Samples;Min_cycle;Max_cycle;Signal;HPM_P1;HPM_P2
2023/10/04 00:00:23;;;;;;;8.50;2.10;;;;;;;15.46;71.51;102138.81;7397501;19;20452;-62
2023/10/04 00:02:52;;;;;;;8.30;2.00;;;;;;;15.37;72.03;102142.97;7398346;19;20705;-63
2023/10/04 00:05:22;;;;;;;6.90;2.20;;;;;;;15.39;71.95;102141.06;7394891;19;20025;-63
2023/10/04 00:07:52;;;;;;;7.53;2.30;;;;;;;15.35;71.92;102136.91;7396398;19;20359;-63
2023/10/04 00:10:23;;;;;;;9.05;2.42;;;;;;;15.29;72.27;102132.00;7396102;19;20042;-63
2023/10/04 00:12:53;;;;;;;9.52;2.65;;;;;;;15.38;71.91;102142.03;7397252;19;20025;-63
2023/10/04 00:15:22;;;;;;;7.43;2.10;;;;;;;15.37;71.84;102134.97;7396979;19;20391;-63
2023/10/04 00:17:52;;;;;;;6.57;2.22;;;;;;;15.40;71.79;102131.25;7395915;19;20047;-64
2023/10/04 00:20:22;;;;;;;11.80;2.53;;;;;;;15.47;71.46;102135.19;7395870;19;20019;-63
2023/10/04 00:22:50;;;;;;;11.00;2.58;;;;;;;15.42;71.54;102135.50;7396716;19;20011;-63
2023/10/04 00:25:21;;;;;;;8.63;2.42;;;;;;;15.42;71.70;102138.19;7396697;19;20026;-63
2023/10/04 00:27:56;;;;;;;8.00;2.10;;;;;;;15.37;71.51;102145.66;7396406;19;20018;-63
2023/10/04 00:30:29;;;;;;;10.02;2.80;;;;;;;15.32;71.77;102150.47;7394707;19;20044;-63
2023/10/04 00:32:59;;;;;;;7.82;2.50;;;;;;;15.27;71.76;102152.63;7393386;19;20023;-63
2023/10/04 00:35:27;;;;;;;10.55;2.42;;;;;;;15.21;71.78;102150.38;7396064;19;20044;-63
2023/10/04 00:37:58;;;;;;;6.97;1.90;;;;;;;15.25;71.66;102154.53;7395496;19;20037;-63
2023/10/04 00:40:30;;;;;;;8.52;2.45;;;;;;;15.28;71.74;102157.00;7395342;19;20376;-63
2023/10/04 00:43:05;;;;;;;9.10;2.15;;;;;;;15.26;71.61;102154.44;7396305;19;20037;-63
2023/10/04 00:45:34;;;;;;;8.43;2.13;;;;;;;15.26;71.51;102162.44;7395944;19;20048;-63
2023/10/04 00:48:11;;;;;;;7.95;1.92;;;;;;;15.32;71.14;102158.47;7393238;19;20019;-63
2023/10/04 00:50:40;;;;;;;8.80;1.98;;;;;;;15.30;71.24;102147.94;7395024;19;20022;-63
2023/10/04 00:53:11;;;;;;;6.88;2.03;;;;;;;15.24;71.31;102156.34;7393733;19;20014;-63
2023/10/04 00:55:43;;;;;;;8.55;2.10;;;;;;;15.26;71.11;102164.25;7395326;19;20018;-64
2023/10/04 00:58:17;;;;;;;9.40;2.05;;;;;;;15.24;71.09;102163.50;7393875;19;20480;-64
2023/10/04 01:00:45;;;;;;;9.50;2.38;;;;;;;15.20;71.30;102173.56;7395471;19;20082;-63
2023/10/04 01:03:20;;;;;;;9.02;1.95;;;;;;;15.21;71.19;102177.91;7394044;19;20035;-63
2023/10/04 01:05:51;;;;;;;6.38;1.92;;;;;;;15.19;71.06;102176.34;7394477;19;20025;-63
2023/10/04 01:08:23;;;;;;;8.98;2.20;;;;;;;15.14;71.30;102171.31;7394220;19;20029;-63
2023/10/04 01:10:52;;;;;;;9.07;2.38;;;;;;;15.10;71.29;102178.66;7394897;19;20029;-62
2023/10/04 01:13:26;;;;;;;7.65;2.47;;;;;;;15.17;71.21;102183.59;7394720;19;20502;-62
2023/10/04 01:15:59;;;;;;;10.32;2.28;;;;;;;15.26;71.02;102175.81;7394734;19;20479;-62
2023/10/04 01:18:29;;;;;;;8.30;2.22;;;;;;;15.24;71.10;102176.84;7393377;19;20023;-62
2023/10/04 01:20:58;;;;;;;6.97;1.90;;;;;;;15.21;70.87;102172.59;7394864;19;20090;-62
2023/10/04 01:23:25;;;;;;;9.73;2.20;;;;;;;15.26;70.97;102180.25;7394554;19;20049;-63
2023/10/04 01:25:53;;;;;;;7.15;2.28;;;;;;;15.28;70.96;102179.19;7394499;19;20078;-62
2023/10/04 01:28:30;;;;;;;8.85;2.00;;;;;;;15.31;70.90;102172.78;7391778;19;20014;-62
2023/10/04 01:30:59;;;;;;;7.97;2.03;;;;;;;15.25;70.90;102174.06;7394455;19;20484;-62
2023/10/04 01:33:31;;;;;;;5.90;1.83;;;;;;;15.26;71.09;102181.13;7394142;19;20011;-62
2023/10/04 01:35:58;;;;;;;8.15;2.10;;;;;;;15.19;71.23;102176.34;7394377;19;20700;-62
2023/10/04 01:38:29;;;;;;;5.97;1.95;;;;;;;15.24;71.04;102184.88;7392596;19;20022;-63
2023/10/04 01:40:58;;;;;;;6.95;1.92;;;;;;;15.15;71.37;102177.50;7393992;19;20356;-63
2023/10/04 01:43:27;;;;;;;8.25;1.90;;;;;;;15.16;71.49;102187.22;7394513;19;20117;-63
2023/10/04 01:45:59;;;;;;;6.57;2.10;;;;;;;15.22;71.45;102173.44;7394264;19;20023;-63
2023/10/04 01:48:35;;;;;;;9.63;2.20;;;;;;;15.14;71.62;102171.31;7392701;19;20026;-63
2023/10/04 01:51:04;;;;;;;8.32;2.38;;;;;;;15.15;71.62;102177.50;7392388;19;20025;-62
2023/10/04 01:53:34;;;;;;;7.47;1.90;;;;;;;15.21;71.24;102182.41;7393483;19;20634;-62
2023/10/04 01:56:06;;;;;;;7.63;2.20;;;;;;;15.12;71.54;102178.56;7393517;19;20380;-62
2023/10/04 01:58:37;;;;;;;8.65;2.15;;;;;;;15.10;71.75;102183.16;7390154;19;20645;-62
2023/10/04 02:01:08;;;;;;;8.40;2.00;;;;;;;15.19;71.53;102179.84;7393904;19;20022;-62
2023/10/04 02:03:36;;;;;;;9.60;2.20;;;;;;;15.11;71.80;102175.06;7393088;19;20026;-62
2023/10/04 02:06:05;;;;;;;8.30;2.03;;;;;;;15.11;71.87;102172.38;7392895;19;20022;-62
2023/10/04 02:08:32;;;;;;;8.10;2.00;;;;;;;15.11;71.93;102190.22;7390216;19;20021;-62
2023/10/04 02:11:03;;;;;;;9.30;2.05;;;;;;;15.15;71.87;102185.50;7393470;19;20036;-62
2023/10/04 02:13:32;;;;;;;6.80;1.83;;;;;;;15.21;71.62;102185.06;7393653;19;20014;-61
2023/10/04 02:16:05;;;;;;;8.27;2.10;;;;;;;15.27;71.53;102188.19;7391823;19;20015;-61
2023/10/04 02:18:33;;;;;;;8.60;2.10;;;;;;;15.22;71.75;102174.28;7391703;19;20246;-61
2023/10/04 02:21:01;;;;;;;6.15;1.63;;;;;;;15.26;71.55;102190.94;7393058;19;20025;-61
2023/10/04 02:23:29;;;;;;;8.88;2.08;;;;;;;15.20;71.59;102184.22;7392548;19;20039;-61
2023/10/04 02:25:58;;;;;;;9.35;2.38;;;;;;;15.21;71.77;102177.91;7392461;19;20018;-61
2023/10/04 02:28:26;;;;;;;8.45;2.00;;;;;;;15.20;71.82;102172.69;7389840;19;20392;-62
2023/10/04 02:30:54;;;;;;;7.40;2.22;;;;;;;15.17;71.71;102176.44;7392245;19;20523;-62
2023/10/04 02:33:31;;;;;;;8.05;2.20;;;;;;;15.11;71.92;102187.56;7391649;19;20022;-62
2023/10/04 02:36:00;;;;;;;9.30;2.30;;;;;;;15.17;71.86;102181.75;7391873;19;20011;-62
2023/10/04 02:38:33;;;;;;;8.07;2.00;;;;;;;15.11;72.06;102185.72;7390781;19;20018;-62
2023/10/04 02:41:01;;;;;;;12.93;2.40;;;;;;;15.12;72.12;102181.25;7392384;19;20488;-62
2023/10/04 02:43:30;;;;;;;9.18;1.95;;;;;;;15.08;72.24;102185.94;7391725;19;20014;-62
2023/10/04 02:45:58;;;;;;;8.05;2.70;;;;;;;15.01;72.40;102186.47;7391777;19;20103;-62
2023/10/04 02:48:25;;;;;;;6.10;2.20;;;;;;;15.09;72.29;102178.78;7389199;19;20019;-62
2023/10/04 02:50:54;;;;;;;7.45;2.40;;;;;;;15.09;71.94;102184.13;7389937;19;20044;-62
2023/10/04 02:53:24;;;;;;;9.00;2.40;;;;;;;15.09;72.20;102178.78;7390366;19;20047;-62
2023/10/04 02:55:57;;;;;;;8.70;2.30;;;;;;;15.06;72.58;102173.66;7388877;19;20361;-62
2023/10/04 02:58:26;;;;;;;10.82;2.33;;;;;;;14.98;72.40;102182.19;7389443;19;20113;-62
2023/10/04 03:00:54;;;;;;;9.90;2.40;;;;;;;14.94;72.73;102177.19;7391887;19;20022;-62
2023/10/04 03:03:25;;;;;;;7.20;2.13;;;;;;;15.01;72.55;102178.47;7389955;19;20015;-62
2023/10/04 03:05:54;;;;;;;6.85;2.10;;;;;;;15.06;72.45;102185.19;7391605;19;20043;-62
2023/10/04 03:08:23;;;;;;;9.77;2.35;;;;;;;15.00;72.50;102180.28;7389988;19;20834;-61
2023/10/04 03:10:55;;;;;;;8.00;2.10;;;;;;;15.00;72.57;102190.13;7391855;19;20048;-61
2023/10/04 03:13:24;;;;;;;9.25;2.28;;;;;;;15.00;72.59;102179.44;7391791;19;20512;-62
2023/10/04 03:15:53;;;;;;;8.50;2.13;;;;;;;15.07;72.68;102178.91;7389422;19;20599;-62
2023/10/04 03:18:25;;;;;;;8.13;2.20;;;;;;;14.96;72.81;102184.13;7389409;19;20029;-62
2023/10/04 03:23:35;;;;;;;9.23;2.35;;;;;;;14.93;73.05;102187.00;7390436;19;20015;-62
2023/10/04 03:26:03;;;;;;;8.68;2.22;;;;;;;14.86;73.27;102185.72;7390962;19;20043;-62
2023/10/04 03:28:33;;;;;;;8.38;2.22;;;;;;;14.96;72.93;102185.94;7396677;19;20019;-62
2023/10/04 03:31:02;;;;;;;8.82;2.42;;;;;;;14.95;72.94;102186.88;7398326;19;20039;-62
2023/10/04 03:33:35;;;;;;;7.50;2.30;;;;;;;15.00;72.91;102195.44;7398120;19;20022;-62
2023/10/04 03:36:04;;;;;;;;;;;;;;;14.73;73.55;102195.50;7399520;19;20022;-62
2023/10/04 03:38:34;;;;;;;9.13;1.98;;;;;;;14.77;74.16;102189.03;7396507;19;20177;-62
2023/10/04 03:41:03;;;;;;;7.22;2.15;;;;;;;14.92;73.29;102203.09;7398225;19;20051;-63
2023/10/04 03:43:31;;;;;;;10.73;2.20;;;;;;;14.84;73.62;102199.16;7398176;19;20179;-62
2023/10/04 03:46:08;;;;;;;7.07;1.92;;;;;;;14.92;73.31;102193.31;7398413;19;20021;-62
2023/10/04 03:48:37;;;;;;;8.35;1.95;;;;;;;14.79;74.03;102205.75;7396225;19;20039;-62
2023/10/04 03:51:05;;;;;;;9.75;2.20;;;;;;;14.85;73.53;102203.53;7397813;19;20348;-62
2023/10/04 03:53:33;;;;;;;8.77;2.60;;;;;;;14.80;73.86;102202.97;7397893;19;20043;-62
2023/10/04 03:56:01;;;;;;;11.40;2.08;;;;;;;14.80;73.95;102210.97;7398021;19;20047;-62
2023/10/04 03:58:28;;;;;;;9.50;2.22;;;;;;;14.82;73.79;102203.75;7394730;19;20014;-62
2023/10/04 04:00:56;;;;;;;7.72;1.90;;;;;;;14.79;74.02;102216.44;7396050;19;20022;-62
2023/10/04 04:03:24;;;;;;;8.70;2.00;;;;;;;14.81;74.09;102226.03;7395895;19;20476;-62
2023/10/04 04:05:54;;;;;;;11.27;2.63;;;;;;;14.80;73.88;102224.31;7397292;19;20027;-62
2023/10/04 04:08:22;;;;;;;7.68;2.38;;;;;;;14.80;73.96;102223.47;7395908;19;20033;-62
2023/10/04 04:10:50;;;;;;;8.30;1.95;;;;;;;14.87;73.97;102214.09;7397764;19;20345;-62
2023/10/04 04:13:18;;;;;;;6.03;1.85;;;;;;;14.90;73.90;102216.56;7397000;19;20018;-62
2023/10/04 04:15:46;;;;;;;6.75;1.88;;;;;;;14.80;73.97;102223.47;7396738;19;20025;-63
2023/10/04 04:18:20;;;;;;;5.65;2.05;;;;;;;14.88;73.70;102223.78;7395303;19;20022;-63
2023/10/04 04:20:48;;;;;;;8.10;1.90;;;;;;;14.80;74.07;102229.66;7394487;19;20033;-63
2023/10/04 04:23:16;;;;;;;9.38;2.15;;;;;;;14.79;74.16;102230.63;7396501;19;20037;-62
2023/10/04 04:25:45;;;;;;;10.65;2.78;;;;;;;14.76;74.25;102236.16;7396538;19;20019;-62
2023/10/04 04:28:14;;;;;;;10.18;2.17;;;;;;;14.73;74.38;102240.84;7394918;19;20026;-62
2023/10/04 04:30:42;;;;;;;7.20;2.35;;;;;;;14.80;74.26;102236.78;7394787;19;20018;-62
2023/10/04 04:33:10;;;;;;;10.10;2.05;;;;;;;14.82;74.03;102238.41;7395933;19;20011;-62
2023/10/04 04:35:47;;;;;;;11.40;2.40;;;;;;;14.79;73.88;102235.94;7396708;19;20035;-62
2023/10/04 04:38:24;;;;;;;9.70;2.22;;;;;;;14.82;74.00;102232.22;7393335;19;20014;-62
2023/10/04 04:41:04;;;;;;;9.68;2.17;;;;;;;14.80;74.02;102226.97;7395395;19;20014;-62
2023/10/04 04:43:36;;;;;;;7.00;2.03;;;;;;;14.72;74.16;102234.66;7397071;19;20015;-63
2023/10/04 04:46:13;;;;;;;5.95;2.08;;;;;;;14.72;74.25;102247.97;7397227;19;20029;-62
2023/10/04 04:48:41;;;;;;;10.90;2.40;;;;;;;14.72;74.20;102255.13;7397813;19;20007;-62
2023/10/04 04:51:15;;;;;;;11.25;2.35;;;;;;;14.76;74.02;102256.63;7396802;19;20484;-62
2023/10/04 04:53:43;;;;;;;9.35;1.90;;;;;;;14.76;74.12;102241.47;7396037;19;20023;-62
2023/10/04 04:56:14;;;;;;;7.95;2.35;;;;;;;14.78;73.98;102255.59;7394688;19;20436;-62
2023/10/04 04:58:44;;;;;;;9.30;2.15;;;;;;;14.71;74.48;102248.09;7393945;19;20036;-63
2023/10/04 05:01:11;;;;;;;10.57;2.00;;;;;;;14.68;74.45;102257.16;7391739;19;20042;-63
2023/10/04 05:03:45;;;;;;;10.75;2.20;;;;;;;14.71;74.45;102248.09;7395128;19;20033;-63
2023/10/04 05:06:20;;;;;;;9.38;1.95;;;;;;;14.69;74.39;102248.22;7393815;19;20010;-63
2023/10/04 05:08:54;;;;;;;8.65;2.00;;;;;;;14.69;74.75;102252.66;7393391;19;20018;-63
2023/10/04 05:11:25;;;;;;;7.95;2.30;;;;;;;14.67;74.57;102257.25;7395058;19;20504;-63
2023/10/04 05:13:56;;;;;;;8.60;2.15;;;;;;;14.72;74.34;102266.66;7395434;19;20026;-67
2023/10/04 05:16:27;;;;;;;10.88;2.25;;;;;;;14.74;74.12;102262.09;7394650;19;20015;-63
2023/10/04 05:18:54;;;;;;;9.60;2.42;;;;;;;14.67;74.51;102271.44;7393124;19;20034;-63
2023/10/04 05:21:22;;;;;;;8.82;2.05;;;;;;;14.72;74.41;102271.97;7393614;19;20425;-63
2023/10/04 05:23:55;;;;;;;7.60;2.03;;;;;;;14.77;74.20;102283.22;7394469;19;20086;-63
2023/10/04 05:26:23;;;;;;;12.02;2.58;;;;;;;14.71;74.24;102269.44;7395794;19;20010;-63
2023/10/04 05:28:52;;;;;;;9.90;2.35;;;;;;;14.70;74.46;102276.59;7395423;19;20021;-63
2023/10/04 05:31:20;;;;;;;10.68;2.45;;;;;;;14.66;74.51;102283.06;7370702;19;20386;-63
2023/10/04 05:33:48;;;;;;;11.48;2.58;;;;;;;14.75;74.01;102282.44;7397584;19;20018;-63
2023/10/04 05:36:17;;;;;;;10.00;2.15;;;;;;;14.79;73.93;102277.78;7394364;19;20486;-63
2023/10/04 05:38:45;;;;;;;11.20;2.40;;;;;;;14.72;74.04;102282.66;7392198;19;20035;-63
2023/10/04 05:41:13;;;;;;;10.55;2.38;;;;;;;14.68;74.39;102286.47;7393612;19;20267;-66
2023/10/04 05:43:40;;;;;;;10.20;2.17;;;;;;;14.72;74.06;102282.66;7393855;19;20027;-62
2023/10/04 05:46:08;;;;;;;8.15;2.05;;;;;;;14.71;74.15;102290.78;7392103;19;20022;-62
2023/10/04 05:48:36;;;;;;;8.30;2.40;;;;;;;14.72;74.26;102285.31;7391835;19;20029;-62
2023/10/04 05:51:06;;;;;;;9.43;2.42;;;;;;;14.80;73.95;102295.47;7393478;19;20015;-63
2023/10/04 05:53:35;;;;;;;9.57;1.88;;;;;;;14.85;73.76;102291.56;7393711;19;20023;-62
2023/10/04 05:56:02;;;;;;;9.32;2.40;;;;;;;14.85;73.85;102288.03;7393166;19;20019;-63
2023/10/04 05:58:31;;;;;;;11.38;2.58;;;;;;;14.83;73.87;102289.94;7393150;19;20494;-63
2023/10/04 06:00:59;;;;;;;12.13;2.78;;;;;;;14.84;73.91;102284.53;7392772;19;20019;-63
2023/10/04 06:03:27;;;;;;;10.20;2.22;;;;;;;14.86;73.82;102271.06;7396250;19;20044;-63
2023/10/04 06:05:59;;;;;;;6.55;2.15;;;;;;;14.86;73.80;102279.91;7393218;19;20019;-63
2023/10/04 06:08:27;;;;;;;10.05;2.55;;;;;;;14.82;74.18;102277.56;7391680;19;20041;-63
2023/10/04 06:10:55;;;;;;;9.68;2.60;;;;;;;14.77;74.17;102288.56;7392932;19;20036;-63
2023/10/04 06:13:22;;;;;;;8.00;2.28;;;;;;;14.88;73.97;102290.47;7392824;19;20096;-63
2023/10/04 06:15:55;;;;;;;8.90;2.42;;;;;;;14.95;73.67;102304.25;7392716;19;20044;-63
2023/10/04 06:18:30;;;;;;;9.52;2.30;;;;;;;14.93;73.80;102299.03;7389691;19;20031;-63
2023/10/04 06:21:01;;;;;;;8.20;2.33;;;;;;;14.94;73.84;102307.91;7390998;19;20018;-63
2023/10/04 06:23:31;;;;;;;10.20;2.65;;;;;;;14.95;73.67;102315.78;7392659;19;20026;-63
2023/10/04 06:25:59;;;;;;;8.05;2.40;;;;;;;14.93;73.67;102314.19;7392309;19;20018;-63
2023/10/04 06:28:28;;;;;;;9.82;2.80;;;;;;;14.91;73.91;102318.78;7389079;19;20030;-63
2023/10/04 06:30:56;;;;;;;12.43;2.58;;;;;;;14.92;73.73;102326.69;7392370;19;20480;-63
2023/10/04 06:33:25;;;;;;;7.82;2.63;;;;;;;14.83;74.05;102343.28;7392096;19;20014;-63
2023/10/04 06:35:53;;;;;;;10.15;2.33;;;;;;;14.89;73.94;102336.72;7389699;19;20018;-63
2023/10/04 06:38:21;;;;;;;10.30;2.65;;;;;;;14.92;73.84;102344.47;7390858;19;20094;-63
2023/10/04 06:40:48;;;;;;;9.60;2.67;;;;;;;14.94;73.74;102342.59;7389699;19;20025;-63
2023/10/04 06:43:16;;;;;;;10.10;2.80;;;;;;;14.98;73.65;102341.41;7392576;19;20048;-63
2023/10/04 06:45:44;;;;;;;8.93;2.40;;;;;;;14.98;73.44;102352.09;7392147;19;20015;-63
2023/10/04 06:48:11;;;;;;;9.32;2.35;;;;;;;14.96;73.48;102362.03;7390517;19;20366;-63
2023/10/04 06:50:39;;;;;;;9.38;2.50;;;;;;;15.04;73.46;102373.03;7391819;19;20382;-63
2023/10/04 06:53:12;;;;;;;10.65;2.80;;;;;;;15.04;73.29;102381.03;7391746;19;20025;-63
2023/10/04 06:55:41;;;;;;;9.32;2.60;;;;;;;15.04;73.27;102373.88;7390636;19;20011;-63
2023/10/04 06:58:12;;;;;;;9.02;2.05;;;;;;;15.07;73.18;102372.81;7390543;19;20044;-63
2023/10/04 07:00:40;;;;;;;12.95;2.70;;;;;;;14.96;73.66;102378.88;7390107;19;20053;-63
2023/10/04 07:03:10;;;;;;;9.15;2.55;;;;;;;14.99;73.67;102375.97;7390771;19;20446;-63
2023/10/04 07:05:40;;;;;;;9.98;2.40;;;;;;;15.04;73.73;102378.38;7391643;19;20338;-63
2023/10/04 07:08:16;;;;;;;7.90;2.65;;;;;;;15.08;73.49;102370.06;7390224;19;20039;-62
2023/10/04 07:10:44;;;;;;;10.18;2.55;;;;;;;15.04;73.52;102376.56;7391249;19;20487;-62
2023/10/04 07:13:14;;;;;;;10.98;2.83;;;;;;;15.06;73.60;102376.44;7391194;19;20021;-62
2023/10/04 07:15:43;;;;;;;9.70;2.47;;;;;;;15.01;73.78;102374.09;7387079;19;20096;-62
2023/10/04 07:18:12;;;;;;;11.25;2.70;;;;;;;15.03;73.71;102377.53;7389874;19;20388;-63
2023/10/04 07:20:41;;;;;;;9.20;2.40;;;;;;;15.08;73.65;102388.72;7390222;19;20025;-62
2023/10/04 07:23:10;;;;;;;7.18;2.30;;;;;;;15.22;73.30;102393.13;7390949;19;20018;-62
2023/10/04 07:25:44;;;;;;;8.27;2.85;;;;;;;15.26;73.02;102399.13;7390673;19;20022;-62
2023/10/04 07:28:12;;;;;;;11.70;3.08;;;;;;;15.22;73.06;102395.78;7390183;19;20033;-62
2023/10/04 07:30:40;;;;;;;13.57;2.60;;;;;;;15.26;73.16;102399.13;7390497;19;20048;-62
2023/10/04 07:33:08;;;;;;;11.45;2.85;;;;;;;15.34;72.91;102400.34;7390666;19;20038;-62
2023/10/04 07:35:37;;;;;;;11.43;2.97;;;;;;;15.38;72.77;102395.66;7390541;19;20356;-62
2023/10/04 07:38:05;;;;;;;10.50;2.63;;;;;;;15.36;72.91;102401.06;7388393;19;20036;-62
2023/10/04 07:40:35;;;;;;;6.63;2.38;;;;;;;15.33;73.10;102397.75;7389479;19;20018;-63
2023/10/04 07:43:03;;;;;;;8.82;2.75;;;;;;;15.46;72.73;102398.66;7390726;19;20019;-63
2023/10/04 07:45:31;;;;;;;10.27;2.53;;;;;;;15.50;72.51;102409.97;7391108;19;20101;-63
2023/10/04 07:48:01;;;;;;;10.32;2.72;;;;;;;15.54;72.66;102411.47;7390084;19;20035;-62
2023/10/04 07:50:31;;;;;;;8.90;2.65;;;;;;;15.51;72.73;102407.19;7389811;19;20014;-62
2023/10/04 07:53:06;;;;;;;9.05;2.70;;;;;;;15.54;72.59;102408.81;7390278;19;20522;-62
2023/10/04 07:55:34;;;;;;;10.18;2.70;;;;;;;15.62;72.47;102422.47;7392261;19;20030;-63
2023/10/04 07:58:05;;;;;;;12.35;3.33;;;;;;;15.68;72.27;102424.78;7391225;19;20023;-62
2023/10/04 08:00:36;;;;;;;12.52;2.38;;;;;;;15.74;72.01;102421.66;7391003;19;20102;-62
2023/10/04 08:03:06;;;;;;;9.55;2.78;;;;;;;15.79;72.17;102421.34;7391879;19;20022;-62
2023/10/04 08:05:36;;;;;;;10.18;2.70;;;;;;;15.83;71.81;102426.41;7389954;19;20023;-62
2023/10/04 08:08:05;;;;;;;11.35;3.20;;;;;;;15.82;71.87;102427.34;7389549;19;20361;-62
2023/10/04 08:10:36;;;;;;;10.65;2.85;;;;;;;15.77;71.97;102421.47;7388576;19;20035;-63
2023/10/04 08:13:04;;;;;;;11.35;2.47;;;;;;;15.81;72.03;102439.00;7392670;19;20036;-63
2023/10/04 08:15:36;;;;;;;11.95;3.00;;;;;;;15.85;72.18;102428.94;7397552;19;20413;-63
2023/10/04 08:18:04;;;;;;;11.98;2.83;;;;;;;15.94;71.90;102436.31;7397214;19;20022;-63
2023/10/04 08:20:33;;;;;;;10.77;2.75;;;;;;;15.95;71.37;102438.06;7396142;19;20356;-63
2023/10/04 08:23:02;;;;;;;10.48;2.75;;;;;;;15.96;71.31;102431.72;7397485;19;20015;-63
2023/10/04 08:25:32;;;;;;;12.55;2.78;;;;;;;16.04;71.46;102434.72;7396859;19;20368;-63
2023/10/04 08:28:01;;;;;;;11.90;3.25;;;;;;;16.07;71.48;102441.69;7396324;19;20052;-63
2023/10/04 08:30:30;;;;;;;15.73;3.45;;;;;;;16.08;71.49;102438.03;7396017;19;20385;-63
2023/10/04 08:32:59;;;;;;;8.48;2.90;;;;;;;16.14;71.50;102432.28;7397020;19;20022;-63
2023/10/04 08:35:28;;;;;;;9.77;2.90;;;;;;;16.22;71.34;102431.72;7397345;19;20341;-63
2023/10/04 08:38:00;;;;;;;12.73;3.30;;;;;;;16.36;70.77;102433.41;7393939;19;20039;-64
2023/10/04 08:40:28;;;;;;;9.52;2.90;;;;;;;16.37;70.57;102435.09;7394940;19;20082;-63
2023/10/04 08:42:58;;;;;;;9.55;2.92;;;;;;;16.41;70.50;102431.25;7395755;19;20014;-63
2023/10/04 08:45:32;;;;;;;16.08;3.38;;;;;;;16.43;70.16;102432.00;7395909;19;20060;-63
2023/10/04 08:48:00;;;;;;;11.82;3.15;;;;;;;16.43;70.04;102430.19;7395362;19;20035;-63
2023/10/04 08:50:36;;;;;;;13.00;2.92;;;;;;;16.46;70.10;102421.94;7395216;19;20021;-64
2023/10/04 08:53:19;;;;;;;11.20;3.28;;;;;;;16.48;69.97;102428.06;7394166;19;20029;-64
2023/10/04 08:55:51;;;;;;;12.20;3.10;;;;;;;16.47;70.31;102426.31;7395733;19;20044;-64
2023/10/04 08:58:19;;;;;;;14.85;3.55;;;;;;;16.57;70.08;102434.56;7394179;19;20018;-62
2023/10/04 09:00:50;;;;;;;12.77;3.58;;;;;;;16.58;70.27;102430.91;7395246;19;20056;-63
2023/10/04 09:03:22;;;;;;;10.50;2.95;;;;;;;16.68;69.86;102436.47;7393962;19;20405;-63
2023/10/04 09:05:52;;;;;;;12.13;2.90;;;;;;;16.67;69.92;102435.56;7395651;19;20019;-63
2023/10/04 09:08:22;;;;;;;10.77;3.10;;;;;;;16.67;69.47;102440.06;7394320;19;20022;-60
2023/10/04 09:10:53;;;;;;;11.25;3.08;;;;;;;16.69;69.85;102438.16;7395113;19;20401;-62
2023/10/04 09:13:20;;;;;;;13.43;3.42;;;;;;;16.70;69.58;102447.88;7395063;19;20026;-61
2023/10/04 09:15:50;;;;;;;8.90;2.83;;;;;;;16.67;69.29;102450.78;7394783;19;20026;-62
2023/10/04 09:18:26;;;;;;;12.10;2.95;;;;;;;16.84;69.20;102450.44;7392442;19;20791;-63
2023/10/04 09:20:54;;;;;;;10.80;2.55;;;;;;;16.83;68.96;102454.09;7394738;19;20015;-61
2023/10/04 09:23:23;;;;;;;10.95;3.28;;;;;;;16.83;68.84;102443.41;7394448;19;20531;-62
2023/10/04 09:25:55;;;;;;;14.63;3.78;;;;;;;16.83;68.51;102455.91;7393364;19;20039;-61
2023/10/04 09:28:40;;;;;;;12.05;3.15;;;;;;;16.89;67.69;102458.13;7393148;19;20085;-62
2023/10/04 09:31:10;;;;;;;14.38;3.38;;;;;;;16.86;67.79;102456.53;7396867;19;20034;-63
2023/10/04 09:33:38;;;;;;;12.90;3.90;;;;;;;16.92;68.36;102457.91;7394086;19;20356;-63
2023/10/04 09:36:06;;;;;;;10.50;3.45;;;;;;;17.04;68.14;102465.03;7394418;19;20499;-63
2023/10/04 09:38:38;;;;;;;12.40;3.20;;;;;;;17.04;67.93;102454.34;7391327;19;20366;-63
2023/10/04 09:41:05;;;;;;;14.18;3.45;;;;;;;17.04;67.93;102459.69;7393457;19;20059;-63
2023/10/04 09:43:37;;;;;;;16.50;3.70;;;;;;;17.07;67.51;102455.94;7394165;19;20037;-64
2023/10/04 09:46:09;;;;;;;12.82;3.95;;;;;;;17.16;67.62;102464.13;7394453;19;20010;-63
2023/10/04 09:48:46;;;;;;;14.82;3.88;;;;;;;17.28;66.40;102451.66;7392737;19;20014;-61
2023/10/04 09:51:14;;;;;;;14.48;3.50;;;;;;;17.33;66.36;102459.34;7394395;19;20039;-64
2023/10/04 09:53:42;;;;;;;11.32;3.30;;;;;;;17.37;66.35;102461.69;7393526;19;20022;-63
2023/10/04 09:56:13;;;;;;;13.88;3.60;;;;;;;17.47;65.79;102464.50;7393542;19;20094;-63
2023/10/04 09:58:48;;;;;;;13.30;3.28;;;;;;;17.68;64.99;102460.22;7392934;19;20014;-64
2023/10/04 10:01:19;;;;;;;11.00;3.20;;;;;;;17.57;65.40;102470.88;7391407;19;20015;-62
2023/10/04 10:04:07;;;;;;;15.77;3.80;;;;;;;17.62;64.73;102478.56;7393199;19;20476;-62
2023/10/04 10:06:51;;;;;;;12.90;3.55;;;;;;;17.51;64.75;102465.97;7393748;19;20015;-62
2023/10/04 10:09:22;;;;;;;13.20;3.60;;;;;;;17.71;64.58;102478.72;7391486;19;20015;-59
2023/10/04 10:11:53;;;;;;;14.60;3.42;;;;;;;17.85;64.11;102466.13;7393236;19;20022;-64
2023/10/04 10:14:22;;;;;;;12.98;3.70;;;;;;;17.84;64.24;102483.19;7392725;19;20380;-63
2023/10/04 10:16:54;;;;;;;10.68;3.33;;;;;;;17.87;63.98;102482.94;7393425;19;20053;-62
2023/10/04 10:19:27;;;;;;;11.48;3.90;;;;;;;17.87;64.19;102483.81;7389634;19;20019;-63
2023/10/04 10:22:18;;;;;;;12.80;3.80;;;;;;;18.04;64.22;102471.75;7391428;19;20018;-62
2023/10/04 10:24:55;;;;;;;12.68;3.88;;;;;;;18.09;62.06;102476.78;7392895;19;20044;-64
2023/10/04 10:27:28;;;;;;;12.98;3.80;;;;;;;17.99;61.75;102480.16;7392776;19;20022;-64
2023/10/04 10:30:03;;;;;;;;;;;;;;;17.59;62.03;102485.03;7391394;19;20074;-63
2023/10/04 10:32:30;;;;;;;11.30;3.35;;;;;;;17.48;63.73;102482.31;7393127;19;19939;-61
2023/10/04 10:35:05;;;;;;;14.10;3.95;;;;;;;17.59;61.74;102474.31;7392623;19;20044;-61
2023/10/04 10:37:35;;;;;;;12.82;4.00;;;;;;;17.58;62.09;102479.78;7390477;19;20410;-61
2023/10/04 10:40:07;;;;;;;12.85;3.70;;;;;;;17.59;61.67;102471.63;7392322;19;20074;-60
2023/10/04 10:43:05;;;;;;;12.80;3.90;;;;;;;17.61;60.58;102474.19;7394877;19;20022;-60
2023/10/04 10:45:33;;;;;;;10.68;3.28;;;;;;;17.62;61.43;102460.66;7393454;19;20022;-60
2023/10/04 10:48:02;;;;;;;14.52;3.80;;;;;;;17.71;61.36;102473.38;7390312;19;20043;-60
2023/10/04 10:50:34;;;;;;;14.50;4.38;;;;;;;17.73;61.21;102484.81;7390555;19;20092;-60
2023/10/04 10:53:07;;;;;;;13.40;4.10;;;;;;;17.77;60.52;102478.28;7391831;19;20512;-60
2023/10/04 10:55:35;;;;;;;12.37;3.93;;;;;;;17.74;60.54;102477.63;7391738;19;20121;-60
2023/10/04 10:58:03;;;;;;;13.18;3.72;;;;;;;17.74;60.55;102475.81;7391906;19;20480;-62
2023/10/04 11:00:33;;;;;;;11.35;4.10;;;;;;;17.80;60.51;102462.94;7391986;19;20034;-62
2023/10/04 11:03:05;;;;;;;12.45;3.90;;;;;;;17.87;60.13;102470.41;7390851;19;20043;-62
2023/10/04 11:05:33;;;;;;;12.73;4.00;;;;;;;17.83;59.95;102466.25;7391781;19;20018;-61
2023/10/04 11:08:06;;;;;;;12.77;4.05;;;;;;;17.90;60.39;102472.84;7391718;19;20025;-60
2023/10/04 11:10:36;;;;;;;13.60;4.32;;;;;;;17.87;61.07;102461.50;7392414;19;20025;-61
2023/10/04 11:13:08;;;;;;;13.15;4.05;;;;;;;17.85;60.81;102463.44;7390179;19;20060;-60
2023/10/04 11:15:36;;;;;;;16.40;4.50;;;;;;;17.90;60.88;102461.28;7390792;19;20026;-61
2023/10/04 11:18:06;;;;;;;16.10;4.63;;;;;;;17.93;60.64;102461.91;7391227;19;20551;-61
2023/10/04 11:20:37;;;;;;;13.18;4.20;;;;;;;17.94;60.79;102460.06;7389855;19;20014;-61
2023/10/04 11:23:06;;;;;;;14.18;4.18;;;;;;;17.95;60.62;102454.56;7390164;19;20029;-62
2023/10/04 11:25:36;;;;;;;12.90;3.85;;;;;;;17.97;60.68;102457.13;7391354;19;20349;-62
2023/10/04 11:28:04;;;;;;;14.70;4.22;;;;;;;18.00;60.71;102451.53;7390847;19;20019;-61
2023/10/04 11:30:33;;;;;;;14.02;4.05;;;;;;;18.06;60.91;102442.16;7390081;19;20014;-62
2023/10/04 11:33:02;;;;;;;12.00;3.92;;;;;;;18.05;60.73;102443.13;7391287;19;20022;-62
2023/10/04 11:35:34;;;;;;;12.50;3.88;;;;;;;18.16;60.44;102444.00;7390795;19;20014;-61
2023/10/04 11:38:05;;;;;;;14.48;4.55;;;;;;;18.12;60.11;102442.50;7389880;19;20022;-62